Time;durP1;ratioP1;P1;durP2;ratioP2;P2;SDS_P1;SDS_P2;PMS_P1;PMS_P2;Temp;Humidity;BMP_temperature;BMP_pressure;BME280_temperature;BME280_humidity;BME280_pressure;Samples;Min_cycle;Max_cycle;Signal;HPM_P1;HPM_P2
2022/02/03 00:00:32;;;;;;;18.10;14.30;;;5.20;99.90;;;;;;5091367;28;20286;-73
2022/02/03 00:03:15;;;;;;;19.30;14.83;;;5.10;99.90;;;;;;5091225;28;20205;-70
2022/02/03 00:05:47;;;;;;;17.00;13.50;;;5.20;99.90;;;;;;5090696;28;20251;-70
2022/02/03 00:08:27;;;;;;;17.47;12.70;;;5.10;99.90;;;;;;5091311;28;20205;-70
2022/02/03 00:22:12;;;;;;;13.20;10.40;;;5.10;99.90;;;;;;5091238;28;20585;-77
2022/02/03 00:24:58;;;;;;;14.37;10.73;;;5.10;99.90;;;;;;5090745;28;20200;-74
2022/02/03 00:27:40;;;;;;;10.13;8.20;;;5.10;99.90;;;;;;5091187;28;20204;-75
2022/02/03 00:30:12;;;;;;;11.07;9.07;;;5.00;99.90;;;;;;5090753;28;20258;-73
2022/02/03 00:33:05;;;;;;;13.63;10.17;;;4.90;99.90;;;;;;5090429;28;20197;-78
2022/02/03 00:35:54;;;;;;;11.53;8.90;;;4.90;99.90;;;;;;5090894;28;20585;-78
2022/02/03 00:38:39;;;;;;;16.13;10.07;;;4.80;99.90;;;;;;5091079;28;20296;-76
2022/02/03 00:49:34;;;;;;;12.53;9.63;;;4.80;99.90;;;;;;5090983;28;20201;-77
2022/02/03 00:52:02;;;;;;;14.37;9.20;;;4.70;99.90;;;;;;5090760;28;20202;-74
2022/02/03 00:54:31;;;;;;;11.10;9.63;;;4.70;99.90;;;;;;5090687;28;20254;-78
2022/02/03 00:57:04;;;;;;;15.33;9.97;;;4.70;99.90;;;;;;5090922;28;20669;-79
2022/02/03 00:59:36;;;;;;;13.67;10.70;;;4.60;99.90;;;;;;5090358;28;20292;-79
2022/02/03 01:02:07;;;;;;;14.00;8.87;;;4.60;99.90;;;;;;5091770;28;20569;-77
2022/02/03 01:04:37;;;;;;;14.43;10.37;;;4.60;99.90;;;;;;5090958;28;20201;-76
2022/02/03 01:07:09;;;;;;;12.50;9.73;;;4.50;99.90;;;;;;5090348;28;20205;-74
2022/02/03 01:09:41;;;;;;;19.03;11.10;;;4.50;99.90;;;;;;5090400;28;20334;-75
2022/02/03 01:12:19;;;;;;;10.03;8.40;;;4.40;99.90;;;;;;5090543;28;20254;-75
2022/02/03 01:15:01;;;;;;;13.77;9.23;;;4.40;99.90;;;;;;5090311;28;20295;-75
2022/02/03 01:17:37;;;;;;;12.80;9.37;;;4.40;99.90;;;;;;5090315;28;20243;-76
2022/02/03 01:34:14;;;;;;;20.80;15.17;;;4.20;99.90;;;;;;5070629;28;20225;-71
2022/02/03 01:37:08;;;;;;;16.00;11.67;;;4.10;99.90;;;;;;5069670;28;20214;-75
2022/02/03 01:45:21;;;;;;;17.30;12.83;;;4.40;99.90;;;;;;5071227;28;20194;-79
2022/02/03 01:48:07;;;;;;;19.47;12.67;;;4.50;99.90;;;;;;5073449;28;20202;-79
2022/02/03 01:53:22;;;;;;;19.60;14.63;;;4.70;99.90;;;;;;5073894;28;20783;-75
2022/02/03 01:56:02;;;;;;;19.47;14.80;;;4.70;99.90;;;;;;5073535;28;20247;-77
2022/02/03 01:58:31;;;;;;;19.07;14.27;;;4.70;99.90;;;;;;5073659;28;20208;-77
2022/02/03 02:01:03;;;;;;;27.50;15.47;;;4.70;99.90;;;;;;5073357;28;20230;-76
2022/02/03 02:03:39;;;;;;;37.27;19.00;;;4.60;99.90;;;;;;5073064;28;20202;-73
2022/02/03 02:06:21;;;;;;;39.03;17.80;;;4.70;99.90;;;;;;5073151;28;20677;-76
2022/02/03 02:08:57;;;;;;;24.57;16.07;;;4.70;99.90;;;;;;5073146;28;20267;-76
2022/02/03 02:11:44;;;;;;;28.73;16.20;;;4.70;99.90;;;;;;5073550;28;20297;-75
2022/02/03 02:14:46;;;;;;;24.27;16.20;;;4.60;99.90;;;;;;5073050;28;20236;-76
2022/02/03 02:17:48;;;;;;;27.53;17.17;;;4.60;99.90;;;;;;5073171;28;20275;-75
2022/02/03 02:37:17;;;;;;;45.53;17.03;;;4.30;99.90;;;;;;5072419;28;20209;-75
2022/02/03 02:40:08;;;;;;;32.60;17.23;;;4.20;99.90;;;;;;5072297;28;20210;-75
2022/02/03 02:42:45;;;;;;;42.13;14.70;;;4.40;99.90;;;;;;5071965;28;20206;-75
2022/02/03 02:45:15;;;;;;;33.43;15.67;;;4.30;99.90;;;;;;5072690;28;20213;-75
2022/02/03 02:47:58;;;;;;;48.70;18.97;;;4.30;99.90;;;;;;5072603;28;20748;-74
2022/02/03 02:50:36;;;;;;;27.43;12.30;;;4.50;99.90;;;;;;5072851;28;20206;-75
2022/02/03 02:53:17;;;;;;;27.83;10.57;;;4.70;99.90;;;;;;5072376;28;20212;-74
2022/02/03 02:56:01;;;;;;;38.90;11.97;;;4.40;99.90;;;;;;5071976;28;20264;-74
2022/02/03 02:58:50;;;;;;;30.80;11.03;;;4.50;99.90;;;;;;5072138;28;20624;-72
2022/02/03 03:32:29;;;;;;;8.93;5.47;;;4.00;99.90;;;;;;5070508;28;20300;-78
2022/02/03 03:35:07;;;;;;;11.07;5.40;;;3.80;99.90;;;;;;5072240;28;20198;-78
2022/02/03 03:37:42;;;;;;;9.20;5.53;;;3.80;99.90;;;;;;5071152;28;20267;-78
2022/02/03 03:40:11;;;;;;;9.37;5.33;;;3.90;99.90;;;;;;5071607;28;20240;-79
2022/02/03 03:42:41;;;;;;;7.83;4.97;;;4.00;99.90;;;;;;5070985;28;20206;-78
2022/02/03 03:45:11;;;;;;;9.17;4.90;;;3.90;99.90;;;;;;5071469;28;20198;-69
2022/02/03 03:47:42;;;;;;;6.37;4.50;;;3.90;99.90;;;;;;5071030;28;20209;-73
2022/02/03 03:50:12;;;;;;;6.60;4.70;;;3.80;99.90;;;;;;5071610;28;20551;-73
2022/02/03 03:52:52;;;;;;;4.77;3.90;;;3.80;99.90;;;;;;5070766;28;20760;-72
2022/02/03 03:55:39;;;;;;;5.73;4.90;;;3.70;99.90;;;;;;5070881;28;20688;-71
2022/02/03 03:58:33;;;;;;;4.97;4.30;;;3.70;99.90;;;;;;5071331;28;20212;-73
2022/02/03 04:31:02;;;;;;;5.73;4.57;;;3.50;99.90;;;;;;5071028;28;20254;-70
2022/02/03 04:33:55;;;;;;;5.27;4.33;;;3.60;99.90;;;;;;5070806;28;20210;-69
2022/02/03 04:37:15;;;;;;;8.33;4.80;;;3.30;99.90;;;;;;5069419;28;20225;-72
2022/02/03 04:55:09;;;;;;;7.63;5.43;;;3.60;99.90;;;;;;5040966;28;20202;-73
2022/02/03 05:03:51;;;;;;;14.73;4.50;;;3.80;99.90;;;;;;5090557;28;20208;-70
2022/02/03 05:06:43;;;;;;;6.77;5.30;;;3.30;99.90;;;;;;5090488;28;20254;-72
2022/02/03 05:09:28;;;;;;;8.03;4.60;;;3.30;99.90;;;;;;5089954;28;20205;-73
2022/02/03 05:12:15;;;;;;;5.77;4.37;;;3.50;99.90;;;;;;5090678;28;20209;-70
2022/02/03 05:15:20;;;;;;;12.83;5.53;;;3.30;99.90;;;;;;5089822;28;20201;-71
2022/02/03 05:18:35;;;;;;;6.30;5.43;;;3.20;99.90;;;;;;5089782;28;20585;-71
2022/02/03 05:21:58;;;;;;;8.10;5.27;;;3.20;99.90;;;;;;5092790;28;20226;-71
2022/02/03 05:25:15;;;;;;;12.20;4.70;;;3.50;99.90;;;;;;5094246;28;20224;-70
2022/02/03 05:46:01;;;;;;;11.87;7.43;;;3.90;99.90;;;;;;5080089;28;20197;-77
2022/02/03 05:48:51;;;;;;;13.20;7.13;;;4.00;99.90;;;;;;5094310;28;20587;-75
2022/02/03 05:51:49;;;;;;;13.60;6.87;;;4.00;99.90;;;;;;5093409;28;20371;-78
2022/02/03 05:54:51;;;;;;;12.33;6.87;;;3.70;99.90;;;;;;5094436;28;20284;-79
2022/02/03 06:03:15;;;;;;;6.97;6.07;;;3.70;99.90;;;;;;5093362;28;20219;-78
2022/02/03 06:05:54;;;;;;;9.03;6.57;;;3.70;99.90;;;;;;5093432;28;20204;-74
2022/02/03 06:08:26;;;;;;;9.87;7.93;;;3.90;99.90;;;;;;5093949;28;20201;-75
2022/02/03 06:13:46;;;;;;;13.30;7.67;;;4.00;99.90;;;;;;5093311;28;20204;-72
2022/02/03 06:21:51;;;;;;;13.03;7.60;;;4.20;99.90;;;;;;5093030;28;20313;-76
2022/02/03 06:24:31;;;;;;;20.43;8.00;;;4.10;99.90;;;;;;5093322;28;20209;-76
2022/02/03 06:29:50;;;;;;;19.60;7.70;;;3.80;99.90;;;;;;5093032;28;20204;-74
2022/02/03 06:32:17;;;;;;;17.03;7.93;;;3.70;99.90;;;;;;5092619;28;20202;-77
2022/02/03 06:34:44;;;;;;;14.83;8.13;;;3.70;99.90;;;;;;5092578;28;20197;-77
2022/02/03 06:37:11;;;;;;;36.17;12.30;;;3.90;99.90;;;;;;5092972;28;20673;-76
2022/02/03 06:39:38;;;;;;;26.23;8.90;;;3.90;99.90;;;;;;5092799;28;20206;-75
2022/02/03 06:42:07;;;;;;;26.13;8.23;;;3.60;99.90;;;;;;5092721;28;20233;-76
2022/02/03 06:44:38;;;;;;;15.93;8.23;;;3.40;99.90;;;;;;5092747;28;20205;-74
2022/02/03 06:47:14;;;;;;;15.47;8.40;;;3.30;99.90;;;;;;5092827;28;20803;-76
2022/02/03 06:49:52;;;;;;;25.73;9.23;;;3.60;99.90;;;;;;5092299;28;20201;-73
2022/02/03 06:52:24;;;;;;;17.57;8.80;;;3.70;99.90;;;;;;5092765;28;20639;-77
2022/02/03 06:55:04;;;;;;;18.53;7.90;;;3.50;99.90;;;;;;5092371;28;20202;-76
2022/02/03 06:57:36;;;;;;;25.83;8.10;;;3.50;99.90;;;;;;5092423;28;20574;-75
2022/02/03 07:00:08;;;;;;;25.37;8.53;;;3.50;99.90;;;;;;5092652;28;20204;-77
2022/02/03 07:02:41;;;;;;;19.30;10.33;;;3.50;99.90;;;;;;5092156;28;20324;-77
2022/02/03 07:05:08;;;;;;;20.07;7.20;;;3.80;99.90;;;;;;5092447;28;20224;-76
2022/02/03 07:07:39;;;;;;;15.13;8.10;;;3.70;99.90;;;;;;5092186;28;20197;-74
2022/02/03 07:10:07;;;;;;;11.17;8.40;;;3.90;99.90;;;;;;5092214;28;20574;-75
2022/02/03 07:12:34;;;;;;;19.90;11.73;;;4.10;99.90;;;;;;5092147;28;20209;-73
2022/02/03 07:15:03;;;;;;;26.50;10.03;;;4.30;99.90;;;;;;5092479;28;20201;-74
2022/02/03 07:17:30;;;;;;;26.27;9.17;;;4.00;99.90;;;;;;5091984;28;20202;-69
2022/02/03 07:20:03;;;;;;;25.10;9.23;;;3.90;99.90;;;;;;5092340;28;20204;-76
2022/02/03 07:22:31;;;;;;;19.20;7.90;;;4.00;99.90;;;;;;5091975;28;20726;-74
2022/02/03 07:24:58;;;;;;;12.33;8.00;;;4.10;99.90;;;;;;5092489;28;20202;-71
2022/02/03 07:27:26;;;;;;;24.60;8.93;;;4.00;99.90;;;;;;5092206;28;20255;-73
2022/02/03 07:29:54;;;;;;;24.03;8.60;;;4.10;99.90;;;;;;5092146;28;20205;-75
2022/02/03 07:32:23;;;;;;;16.17;8.83;;;4.00;99.90;;;;;;5092202;28;20201;-80
2022/02/03 07:34:53;;;;;;;30.70;9.33;;;4.30;99.90;;;;;;5091461;28;20213;-77
2022/02/03 07:37:24;;;;;;;17.70;10.17;;;4.50;99.90;;;;;;5091910;28;20213;-78
2022/02/03 07:39:51;;;;;;;22.07;10.93;;;4.60;99.90;;;;;;5091674;28;20205;-80
2022/02/03 07:42:18;;;;;;;33.17;11.17;;;4.70;99.90;;;;;;5092551;28;20633;-76
2022/02/03 07:44:46;;;;;;;13.67;9.70;;;4.60;99.90;;;;;;5094423;28;20620;-73
2022/02/03 07:47:13;;;;;;;22.40;12.47;;;4.70;99.90;;;;;;5092081;28;20208;-75
2022/02/03 07:49:39;;;;;;;19.50;12.67;;;4.90;99.90;;;;;;5084907;28;20197;-74
2022/02/03 07:52:07;;;;;;;31.90;10.60;;;5.00;99.90;;;;;;5080894;28;20682;-76
2022/02/03 07:54:36;;;;;;;13.50;9.30;;;4.90;99.90;;;;;;5075027;28;20263;-77
2022/02/03 07:57:04;;;;;;;18.27;8.50;;;4.80;99.90;;;;;;5075448;28;20666;-78
2022/02/03 07:59:31;;;;;;;18.30;9.57;;;4.80;99.90;;;;;;5051241;28;20268;-74
2022/02/03 08:01:58;;;;;;;12.40;8.83;;;4.90;99.90;;;;;;5071060;28;20230;-76
2022/02/03 08:04:26;;;;;;;16.87;9.40;;;5.10;99.90;;;;;;5082393;28;20210;-77
2022/02/03 08:06:53;;;;;;;17.77;9.67;;;5.30;99.90;;;;;;5071100;28;20252;-76
2022/02/03 08:09:24;;;;;;;17.43;9.03;;;5.40;99.90;;;;;;5071018;28;20210;-73
2022/02/03 08:11:54;;;;;;;14.93;8.80;;;5.30;99.90;;;;;;5070829;28;20205;-77
2022/02/03 08:14:27;;;;;;;15.70;7.73;;;5.30;99.90;;;;;;5070969;28;20297;-77
2022/02/03 08:16:59;;;;;;;14.53;8.70;;;5.30;99.90;;;;;;5050639;28;20332;-74
2022/02/03 08:19:32;;;;;;;17.30;8.90;;;5.30;99.90;;;;;;5051196;28;20207;-74
2022/02/03 08:22:03;;;;;;;15.70;7.70;;;5.30;99.90;;;;;;5050826;28;20231;-79
2022/02/03 08:24:33;;;;;;;13.63;7.57;;;5.10;99.90;;;;;;5050703;28;20292;-72
2022/02/03 08:27:22;;;;;;;13.37;7.57;;;5.30;99.90;;;;;;5050789;28;20207;-79
2022/02/03 08:30:07;;;;;;;10.57;7.93;;;5.40;99.90;;;;;;5065672;28;20708;-74
2022/02/03 08:32:38;;;;;;;14.47;8.07;;;5.40;99.90;;;;;;5054859;28;20214;-73
2022/02/03 08:35:20;;;;;;;15.33;7.10;;;5.50;99.90;;;;;;5067879;28;20598;-73
2022/02/03 08:37:59;;;;;;;16.20;7.40;;;5.50;99.90;;;;;;5058796;28;20742;-76
2022/02/03 08:40:30;;;;;;;11.53;7.33;;;5.30;99.90;;;;;;5075019;28;20210;-73
2022/02/03 08:42:59;;;;;;;11.93;8.20;;;5.30;99.90;;;;;;5088442;28;20243;-74
2022/02/03 08:45:26;;;;;;;15.80;7.13;;;5.50;99.90;;;;;;5091031;28;20206;-73
2022/02/03 08:47:53;;;;;;;10.27;7.10;;;5.10;99.90;;;;;;5089882;28;20216;-73
2022/02/03 08:50:21;;;;;;;12.63;7.00;;;5.20;99.90;;;;;;5070765;28;20255;-74
2022/02/03 08:52:57;;;;;;;16.93;7.67;;;5.40;99.90;;;;;;5069745;28;20214;-73
2022/02/03 08:55:31;;;;;;;9.83;6.47;;;5.30;99.90;;;;;;5074184;28;20213;-72
2022/02/03 09:39:17;;;;;;;5.83;4.00;;;5.90;99.90;;;;;;5053971;28;20276;-75
2022/02/03 09:44:56;;;;;;;5.77;4.90;;;5.80;99.90;;;;;;5072179;28;20240;-72
2022/02/03 09:59:04;;;;;;;4.30;3.83;;;6.60;99.90;;;;;;5086507;28;20762;-72
2022/02/03 10:01:35;;;;;;;5.40;4.03;;;6.90;99.90;;;;;;5088704;28;20209;-72
2022/02/03 10:04:11;;;;;;;5.40;4.20;;;7.10;99.90;;;;;;5092602;28;20246;-71
2022/02/03 10:06:49;;;;;;;4.60;4.10;;;7.50;99.90;;;;;;5072229;28;20224;-77
2022/02/03 10:09:35;;;;;;;4.67;4.17;;;7.30;99.90;;;;;;5065225;28;20225;-73
2022/02/03 10:12:02;;;;;;;6.57;4.90;;;8.40;99.90;;;;;;5052749;28;20248;-72
2022/02/03 10:14:33;;;;;;;5.33;4.70;;;9.60;99.90;;;;;;5052842;28;20245;-72
2022/02/03 10:17:01;;;;;;;4.83;4.10;;;10.10;99.90;;;;;;5052524;28;20293;-77
2022/02/03 10:19:34;;;;;;;5.63;4.40;;;10.30;99.90;;;;;;5053105;28;20298;-71
2022/02/03 10:22:02;;;;;;;7.50;5.20;;;10.20;99.90;;;;;;5053130;28;20241;-72
2022/02/03 10:24:35;;;;;;;7.50;5.43;;;9.70;99.90;;;;;;5053104;28;20617;-74
2022/02/03 10:27:02;;;;;;;6.10;5.03;;;8.90;99.90;;;;;;5052582;28;20206;-71
2022/02/03 10:29:36;;;;;;;6.30;5.30;;;8.20;99.90;;;;;;5053048;28;20206;-72
2022/02/03 10:32:03;;;;;;;6.60;5.47;;;8.20;99.90;;;;;;5053033;28;20240;-74
2022/02/03 10:34:33;;;;;;;6.37;5.07;;;8.10;99.90;;;;;;5060249;28;20256;-71
2022/02/03 10:37:08;;;;;;;6.53;4.97;;;8.00;99.90;;;;;;5084620;28;20217;-72
2022/02/03 10:40:11;;;;;;;6.57;5.33;;;8.10;99.90;;;;;;5091361;28;20201;-73
2022/02/03 10:43:08;;;;;;;6.73;5.70;;;8.00;99.90;;;;;;5091836;28;20235;-73
2022/02/03 10:45:46;;;;;;;6.30;5.43;;;7.80;99.90;;;;;;5092216;28;20202;-76
2022/02/03 10:48:30;;;;;;;7.77;5.20;;;7.90;99.90;;;;;;5082218;28;20213;-73
2022/02/03 10:51:29;;;;;;;6.07;5.30;;;8.10;99.90;;;;;;5063387;28;20211;-74
2022/02/03 10:54:13;;;;;;;7.07;5.13;;;8.40;99.90;;;;;;5070684;28;20275;-75
2022/02/03 11:02:48;;;;;;;7.77;5.17;;;9.40;99.90;;;;;;5072310;28;20736;-80
2022/02/03 11:05:39;;;;;;;8.10;5.00;;;9.20;99.90;;;;;;5074008;28;20248;-77
2022/02/03 11:08:14;;;;;;;5.60;5.00;;;9.30;99.90;;;;;;5069876;28;20298;-75
2022/02/03 11:10:50;;;;;;;5.67;4.57;;;9.10;99.90;;;;;;5064230;28;20206;-76
2022/02/03 11:13:19;;;;;;;5.67;4.97;;;9.30;99.90;;;;;;5071990;28;20210;-75
2022/02/03 11:15:46;;;;;;;9.17;6.37;;;9.50;99.90;;;;;;5071411;28;20210;-76
2022/02/03 11:18:14;;;;;;;6.57;5.97;;;9.30;99.90;;;;;;5070976;28;20624;-72
2022/02/03 11:20:42;;;;;;;7.17;5.47;;;9.40;99.90;;;;;;5067414;28;20297;-72
2022/02/03 11:23:22;;;;;;;5.03;3.93;;;9.50;99.90;;;;;;5077029;28;20324;-72
2022/02/03 11:40:34;;;;;;;7.93;5.13;;;10.00;99.90;;;;;;5057503;28;20650;-73
2022/02/03 11:48:56;;;;;;;23.93;10.97;;;9.70;99.90;;;;;;5039756;28;20238;-75
2022/02/03 11:52:27;;;;;;;4.03;3.43;;;9.90;99.90;;;;;;5051280;28;20298;-76
2022/02/03 12:11:44;;;;;;;5.37;3.93;;;9.50;99.90;;;;;;5056778;28;20249;-75
2022/02/03 12:14:44;;;;;;;5.97;4.20;;;9.50;99.90;;;;;;5069445;28;20214;-72
2022/02/03 12:17:32;;;;;;;8.87;4.73;;;9.60;99.90;;;;;;5053094;28;20207;-75
2022/02/03 12:20:13;;;;;;;7.60;4.70;;;9.90;99.90;;;;;;5065430;28;20670;-73
2022/02/03 12:23:00;;;;;;;6.57;4.97;;;10.20;99.90;;;;;;5064197;28;20233;-75
2022/02/03 12:25:47;;;;;;;8.03;5.23;;;10.10;99.90;;;;;;5072113;28;20213;-73
2022/02/03 12:28:23;;;;;;;8.27;5.60;;;9.90;99.90;;;;;;5062160;28;20241;-72
2022/02/03 12:31:40;;;;;;;8.30;5.50;;;9.60;99.90;;;;;;5071147;28;20202;-72
2022/02/03 12:39:50;;;;;;;13.30;7.77;;;9.00;99.90;;;;;;5064947;28;20198;-72
2022/02/03 12:42:31;;;;;;;9.10;6.57;;;8.90;99.90;;;;;;5072432;28;20228;-74
2022/02/03 12:45:16;;;;;;;11.67;6.80;;;8.90;99.90;;;;;;5065288;28;20202;-72
2022/02/03 12:47:47;;;;;;;10.73;7.00;;;8.90;99.90;;;;;;5085106;28;20205;-72
2022/02/03 12:50:20;;;;;;;7.77;5.83;;;8.90;99.90;;;;;;5090605;28;20209;-72
2022/02/03 12:52:48;;;;;;;8.07;6.03;;;9.00;99.90;;;;;;5075707;28;21116;-73
2022/02/03 12:55:23;;;;;;;10.30;7.20;;;9.00;99.90;;;;;;5090345;28;20209;-73
2022/02/03 12:57:51;;;;;;;9.37;7.27;;;9.20;99.90;;;;;;5076360;28;20930;-72
2022/02/03 13:00:28;;;;;;;10.53;7.53;;;9.40;99.90;;;;;;5090570;28;20766;-72
2022/02/03 13:02:59;;;;;;;13.63;6.73;;;9.50;99.90;;;;;;5087459;28;20283;-72
2022/02/03 13:05:28;;;;;;;10.13;6.37;;;9.60;99.90;;;;;;5090248;28;20296;-71
2022/02/03 13:07:57;;;;;;;11.03;6.33;;;9.90;99.90;;;;;;5084855;28;20202;-71
2022/02/03 13:10:26;;;;;;;11.90;7.10;;;10.00;99.90;;;;;;5080411;28;20210;-75
2022/02/03 13:13:02;;;;;;;7.87;6.10;;;9.80;99.90;;;;;;5086750;28;20198;-72
2022/02/03 13:15:35;;;;;;;14.37;7.97;;;9.70;99.90;;;;;;5090175;28;20266;-72
2022/02/03 13:18:09;;;;;;;9.27;6.13;;;9.60;99.90;;;;;;5090165;28;20204;-71
2022/02/03 13:20:42;;;;;;;8.37;6.43;;;9.60;99.90;;;;;;5078402;28;20206;-73
2022/02/03 13:23:13;;;;;;;8.60;6.53;;;9.70;99.90;;;;;;5068341;28;20238;-74
2022/02/03 13:25:53;;;;;;;10.90;7.53;;;9.70;99.90;;;;;;5081151;28;20563;-75
2022/02/03 13:28:29;;;;;;;13.63;6.00;;;9.80;99.90;;;;;;5075637;28;20250;-73
2022/02/03 13:31:14;;;;;;;11.00;6.37;;;9.70;99.90;;;;;;5075908;28;20208;-72
2022/02/03 13:33:50;;;;;;;13.97;7.97;;;9.60;99.90;;;;;;5073035;28;20673;-74
2022/02/03 13:36:23;;;;;;;8.23;6.60;;;9.70;99.90;;;;;;5089915;28;20202;-73
2022/02/03 13:39:00;;;;;;;11.47;7.93;;;10.00;99.90;;;;;;5070093;28;20643;-73
2022/02/03 13:41:32;;;;;;;8.83;6.77;;;10.20;99.90;;;;;;5072830;28;20198;-71
2022/02/03 13:44:04;;;;;;;8.03;6.77;;;10.20;99.90;;;;;;5088071;28;20233;-72
2022/02/03 13:46:34;;;;;;;10.97;7.17;;;10.20;99.90;;;;;;5085729;28;20201;-71
2022/02/03 13:49:02;;;;;;;9.60;7.33;;;10.00;99.90;;;;;;5079652;28;20564;-75
2022/02/03 13:51:35;;;;;;;16.17;8.90;;;10.00;99.90;;;;;;5071984;28;20627;-75
2022/02/03 13:54:13;;;;;;;17.37;11.80;;;10.10;99.90;;;;;;5074357;28;20214;-71
2022/02/03 14:16:56;;;;;;;13.87;7.83;;;10.20;99.90;;;;;;5079153;28;20217;-72
2022/02/03 14:19:38;;;;;;;11.33;7.33;;;10.00;99.90;;;;;;5074222;28;20202;-72
2022/02/03 14:22:08;;;;;;;13.23;8.17;;;9.90;99.90;;;;;;5078820;28;20207;-72
2022/02/03 14:27:22;;;;;;;13.30;8.87;;;9.90;99.90;;;;;;5082218;28;20234;-74
2022/02/03 14:29:53;;;;;;;11.80;7.97;;;9.90;99.90;;;;;;5089155;28;20213;-73
2022/02/03 14:32:29;;;;;;;14.20;7.97;;;10.00;99.90;;;;;;5084422;28;20201;-77
2022/02/03 14:34:56;;;;;;;13.90;9.20;;;10.00;99.90;;;;;;5089764;28;20692;-74
2022/02/03 14:37:34;;;;;;;12.63;7.80;;;9.90;99.90;;;;;;5091336;28;20209;-71
2022/02/03 14:40:16;;;;;;;15.97;8.93;;;9.90;99.90;;;;;;5071606;28;20705;-74
2022/02/03 14:42:44;;;;;;;11.17;7.27;;;10.00;99.90;;;;;;5090640;28;20194;-75
2022/02/03 14:45:14;;;;;;;13.63;8.00;;;10.20;99.90;;;;;;5082519;28;20863;-74
2022/02/03 14:47:41;;;;;;;14.70;7.60;;;10.20;99.90;;;;;;5090980;28;20236;-72
2022/02/03 14:50:10;;;;;;;14.23;8.53;;;10.30;99.90;;;;;;5090819;28;20205;-72
2022/02/03 14:52:55;;;;;;;14.60;8.87;;;10.10;99.90;;;;;;5091788;28;20237;-72
2022/02/03 14:58:15;;;;;;;13.00;7.70;;;10.10;99.90;;;;;;5084317;28;20328;-72
2022/02/03 15:00:45;;;;;;;13.63;8.07;;;10.20;99.90;;;;;;5069218;28;20213;-72
2022/02/03 15:03:12;;;;;;;15.70;8.63;;;10.10;99.90;;;;;;5072147;28;20854;-72
2022/02/03 15:05:40;;;;;;;12.43;8.90;;;10.20;99.90;;;;;;5085338;28;20208;-72
2022/02/03 15:08:17;;;;;;;13.43;9.20;;;10.40;99.90;;;;;;5072616;28;20209;-72
2022/02/03 15:10:50;;;;;;;15.17;8.93;;;10.40;99.90;;;;;;5077042;28;21054;-72
2022/02/03 15:13:32;;;;;;;15.20;7.57;;;10.50;99.90;;;;;;5071695;28;20252;-71
2022/02/03 15:15:59;;;;;;;15.57;10.07;;;10.50;99.90;;;;;;5088240;28;20213;-72
2022/02/03 15:18:27;;;;;;;13.43;8.37;;;10.80;99.90;;;;;;5091794;28;20201;-74
2022/02/03 15:20:53;;;;;;;19.10;8.47;;;10.80;99.90;;;;;;5088065;28;20209;-70
2022/02/03 15:23:22;;;;;;;17.33;10.60;;;10.80;99.90;;;;;;5090826;28;20230;-76
2022/02/03 15:25:49;;;;;;;17.27;8.83;;;10.70;99.90;;;;;;5076184;28;20207;-71
2022/02/03 15:28:17;;;;;;;20.57;11.13;;;10.70;99.90;;;;;;5078465;28;20274;-71
2022/02/03 15:30:44;;;;;;;14.40;9.33;;;10.60;99.90;;;;;;5085422;28;20296;-72
2022/02/03 15:33:11;;;;;;;17.03;10.50;;;10.60;99.90;;;;;;5084930;28;20696;-72
2022/02/03 15:35:43;;;;;;;16.40;10.67;;;10.60;99.90;;;;;;5084697;28;20304;-72
2022/02/03 15:38:14;;;;;;;11.93;10.37;;;10.60;99.90;;;;;;5065643;28;20688;-75
2022/02/03 15:40:44;;;;;;;18.03;12.13;;;10.40;99.90;;;;;;5090893;28;20206;-72
2022/02/03 15:43:23;;;;;;;21.87;11.30;;;10.40;99.90;;;;;;5091423;28;20712;-73
2022/02/03 15:45:54;;;;;;;20.23;10.97;;;10.40;99.90;;;;;;5075997;28;20324;-76
2022/02/03 15:48:31;;;;;;;17.83;10.97;;;10.30;99.90;;;;;;5076360;28;20293;-76
2022/02/03 16:18:45;;;;;;;21.40;9.87;;;10.10;99.90;;;;;;5083173;28;20205;-79
2022/02/03 16:21:20;;;;;;;18.90;14.63;;;10.00;99.90;;;;;;5090885;28;20578;-73
2022/02/03 16:51:25;;;;;;;19.63;12.23;;;9.80;99.90;;;;;;5070183;28;20224;-73
2022/02/03 16:53:53;;;;;;;26.20;13.10;;;9.80;99.90;;;;;;5058412;28;20284;-77
2022/02/03 16:56:23;;;;;;;18.87;11.80;;;9.80;99.90;;;;;;5073892;28;20202;-72
2022/02/03 16:58:50;;;;;;;19.93;12.93;;;9.70;99.90;;;;;;5063679;28;20213;-74
2022/02/03 17:01:19;;;;;;;23.30;13.70;;;9.70;99.90;;;;;;5090444;28;20216;-76
2022/02/03 17:03:46;;;;;;;19.30;13.33;;;9.70;99.90;;;;;;5089980;28;20328;-75
2022/02/03 17:06:13;;;;;;;27.63;14.47;;;9.70;99.90;;;;;;5090558;28;20205;-77
2022/02/03 17:08:41;;;;;;;24.63;14.93;;;9.70;99.90;;;;;;5087099;28;20212;-75
2022/02/03 17:11:08;;;;;;;23.33;15.53;;;9.70;99.90;;;;;;5069137;28;20209;-77
2022/02/03 17:13:35;;;;;;;19.40;12.50;;;9.70;99.90;;;;;;5069406;28;20274;-72
2022/02/03 17:16:03;;;;;;;25.70;13.83;;;9.70;99.90;;;;;;5083406;28;20251;-71
2022/02/03 17:18:31;;;;;;;17.50;11.37;;;9.70;99.90;;;;;;5094429;28;20201;-71
2022/02/03 17:20:58;;;;;;;20.80;13.30;;;9.70;99.90;;;;;;5094385;28;20206;-73
2022/02/03 17:23:27;;;;;;;22.93;13.77;;;9.70;99.90;;;;;;5094411;28;20719;-74
2022/02/03 17:26:04;;;;;;;20.17;12.03;;;9.60;99.90;;;;;;5093774;28;20687;-77
2022/02/03 17:28:37;;;;;;;16.73;11.80;;;9.60;99.90;;;;;;5089802;28;20213;-75
2022/02/03 17:31:09;;;;;;;17.50;11.50;;;9.60;99.90;;;;;;5077758;28;20305;-75
2022/02/03 18:04:50;;;;;;;22.10;13.23;;;9.70;99.90;;;;;;5091689;28;20247;-77
2022/02/03 18:09:43;;;;;;;22.43;14.03;;;9.60;99.90;;;;;;5081862;28;20212;-75
2022/02/03 18:18:11;;;;;;;33.37;17.63;;;9.70;99.90;;;;;;5092756;28;20247;-77
2022/02/03 18:34:40;;;;;;;22.23;15.20;;;9.40;99.90;;;;;;5074369;28;20209;-73
2022/02/03 18:37:18;;;;;;;26.33;15.47;;;9.40;99.90;;;;;;5068834;28;20214;-78
2022/02/03 18:50:50;;;;;;;25.57;13.73;;;9.20;99.90;;;;;;5092104;28;20771;-76
2022/02/03 18:53:21;;;;;;;21.70;16.00;;;9.10;99.90;;;;;;5086413;28;20230;-77
2022/02/03 18:55:59;;;;;;;20.97;13.37;;;9.10;99.90;;;;;;5078722;28;20214;-77
2022/02/03 18:58:37;;;;;;;21.00;14.27;;;9.20;99.90;;;;;;5065524;28;20254;-76
2022/02/03 19:01:23;;;;;;;23.97;13.07;;;9.20;99.90;;;;;;5078323;28;20205;-76
2022/02/03 19:09:59;;;;;;;21.90;15.57;;;9.20;99.90;;;;;;5088236;28;20331;-77
2022/02/03 19:15:44;;;;;;;24.57;13.60;;;9.10;99.90;;;;;;5075409;28;20213;-77
2022/02/03 19:21:27;;;;;;;22.53;14.50;;;9.10;99.90;;;;;;5086384;28;20265;-76
2022/02/03 19:27:22;;;;;;;21.53;15.40;;;9.10;99.90;;;;;;5009496;28;20339;-77
2022/02/03 20:05:57;;;;;;;21.40;15.00;;;9.10;99.90;;;;;;5070794;28;20240;-72
2022/02/03 20:08:30;;;;;;;22.00;15.17;;;9.00;99.90;;;;;;5071316;28;20209;-72
2022/02/03 20:10:57;;;;;;;20.20;13.73;;;9.10;99.90;;;;;;5071116;28;20202;-72
2022/02/03 20:13:24;;;;;;;19.60;14.50;;;9.10;99.90;;;;;;5071174;28;20267;-72
2022/02/03 20:15:51;;;;;;;18.90;14.03;;;9.10;99.90;;;;;;5070729;28;20206;-72
2022/02/03 20:18:21;;;;;;;15.47;12.70;;;9.00;99.90;;;;;;5071037;28;20267;-72
2022/02/03 20:20:48;;;;;;;22.00;15.63;;;9.00;99.90;;;;;;5070822;28;20202;-72
2022/02/03 20:23:19;;;;;;;18.13;13.43;;;9.00;99.90;;;;;;5070764;28;20631;-72
2022/02/03 20:25:53;;;;;;;15.83;13.17;;;9.00;99.90;;;;;;5070492;28;20641;-71
2022/02/03 20:28:20;;;;;;;20.87;13.60;;;8.90;99.90;;;;;;5070214;28;20557;-73
2022/02/03 20:30:47;;;;;;;21.90;15.03;;;9.00;99.90;;;;;;5070697;28;20201;-73
2022/02/03 20:33:15;;;;;;;20.13;14.23;;;9.00;99.90;;;;;;5071031;28;20237;-72
2022/02/03 20:35:43;;;;;;;21.47;14.03;;;8.90;99.90;;;;;;5067074;28;20665;-74
2022/02/03 20:38:14;;;;;;;25.33;16.87;;;8.90;99.90;;;;;;5063719;28;20275;-73
2022/02/03 20:40:41;;;;;;;25.57;16.53;;;8.90;99.90;;;;;;5066407;28;20253;-74
2022/02/03 20:43:09;;;;;;;21.07;15.97;;;8.80;99.90;;;;;;5071015;28;20281;-76
2022/02/03 20:45:36;;;;;;;23.33;16.27;;;8.90;99.90;;;;;;5070346;28;20587;-73
2022/02/03 20:48:07;;;;;;;21.77;15.73;;;8.80;99.90;;;;;;5070907;28;20202;-79
2022/02/03 20:50:35;;;;;;;24.07;14.63;;;8.80;99.90;;;;;;5069926;28;20252;-77
2022/02/03 20:53:05;;;;;;;21.03;13.57;;;8.90;99.90;;;;;;5070636;28;20206;-73
2022/02/03 20:55:32;;;;;;;20.27;14.77;;;8.80;99.90;;;;;;5070542;28;20210;-74
2022/02/03 20:57:59;;;;;;;20.80;14.63;;;8.80;99.90;;;;;;5070730;28;20580;-75
2022/02/03 21:00:31;;;;;;;23.43;14.67;;;8.90;99.90;;;;;;5071110;28;20202;-71
2022/02/03 21:03:03;;;;;;;21.50;15.13;;;8.90;99.90;;;;;;5071024;28;20237;-75
2022/02/03 21:05:30;;;;;;;20.67;15.10;;;8.90;99.90;;;;;;5070088;28;20271;-76
2022/02/03 21:07:57;;;;;;;25.50;15.53;;;8.90;99.90;;;;;;5071156;28;20202;-75
2022/02/03 21:10:29;;;;;;;20.40;12.57;;;8.90;99.90;;;;;;5070988;28;20208;-75
2022/02/03 21:12:57;;;;;;;19.33;13.30;;;8.80;99.90;;;;;;5070785;28;20731;-75
2022/02/03 21:15:30;;;;;;;19.83;14.40;;;8.80;99.90;;;;;;5070719;28;20616;-74
2022/02/03 21:18:01;;;;;;;22.10;14.77;;;8.80;99.90;;;;;;5070604;28;20285;-78
2022/02/03 21:20:28;;;;;;;21.57;14.30;;;8.80;99.90;;;;;;5070294;28;20209;-74